createdAt,value
2017-11-29T16:32:00.604Z,2.60
2017-11-29T16:33:00.573Z,2.90
2017-11-29T16:34:00.530Z,2.70
2017-11-29T16:35:00.530Z,2.70
2017-11-29T16:36:00.496Z,2.90
2017-11-29T16:37:00.521Z,3.40
2017-11-29T16:38:00.448Z,3.10
2017-11-29T16:39:00.459Z,3.60
2017-11-29T16:40:00.449Z,3.30
2017-11-29T16:41:00.572Z,3.40
2017-11-29T16:42:00.476Z,3.10
2017-11-29T16:43:00.670Z,2.20
2017-11-29T16:44:00.837Z,3.20
2017-11-29T16:45:00.334Z,3.70
2017-11-29T16:46:01.168Z,3.80
2017-11-29T16:47:00.286Z,3.90
2017-11-29T16:48:00.251Z,4.20
2017-11-29T16:49:00.235Z,3.70
2017-11-29T16:50:00.208Z,5.00
2017-11-29T16:51:00.174Z,7.90
2017-11-29T16:52:00.167Z,7.70
2017-11-29T16:53:00.236Z,7.60
2017-11-29T16:54:00.141Z,8.80
2017-11-29T16:55:00.122Z,10.50
2017-11-29T16:56:00.103Z,11.60
2017-11-29T16:57:00.075Z,12.60
2017-11-29T16:58:00.068Z,13.20
2017-11-29T16:59:00.065Z,14.40
2017-11-29T17:00:00.034Z,15.30
2017-11-29T17:01:00.007Z,14.50
2017-11-29T17:02:00.022Z,15.60
2017-11-29T17:02:59.966Z,15.00
2017-11-29T17:04:00.008Z,15.20
2017-11-29T17:04:59.920Z,16.80
2017-11-29T17:05:59.917Z,16.80
2017-11-29T17:06:59.887Z,16.40
2017-11-29T17:07:59.864Z,17.00
2017-11-29T17:08:59.849Z,17.50
2017-11-29T17:09:59.814Z,16.60
2017-11-29T17:10:59.815Z,17.00
2017-11-29T17:11:59.792Z,17.80
2017-11-29T17:12:59.766Z,17.10
2017-11-29T17:13:59.768Z,16.80
2017-11-29T17:14:59.777Z,17.00
2017-11-29T17:15:59.736Z,16.60
2017-11-29T17:16:59.746Z,16.90
2017-11-29T17:17:59.696Z,19.00
2017-11-29T17:19:01.754Z,17.90
2017-11-29T17:20:00.296Z,17.70
2017-11-29T17:21:00.455Z,18.60
2017-11-29T17:22:00.562Z,17.80
2017-11-29T17:23:00.552Z,17.90
2017-11-29T17:24:01.458Z,18.70
2017-11-29T17:25:00.421Z,18.40
2017-11-29T17:26:01.334Z,16.90
2017-11-29T17:27:00.364Z,15.70
2017-11-29T17:28:00.449Z,19.10
2017-11-29T17:29:00.315Z,19.70
2017-11-29T17:30:00.002Z,18.90
2017-11-29T17:31:00.294Z,13.50
2017-11-29T17:32:01.223Z,13.40
2017-11-29T17:33:01.730Z,15.90
2017-11-29T17:34:01.211Z,15.70
2017-11-29T17:35:00.336Z,15.10
2017-11-29T17:36:00.780Z,15.90
2017-11-29T17:37:01.219Z,15.20
2017-11-29T17:38:00.931Z,15.30
2017-11-29T17:39:01.048Z,16.40
2017-11-29T17:40:01.758Z,16.90
2017-11-29T17:40:59.697Z,16.00
2017-11-29T17:42:01.448Z,16.80
2017-11-29T17:43:00.928Z,16.90
2017-11-29T17:44:01.343Z,15.60
2017-11-29T17:44:59.859Z,16.30
2017-11-29T17:45:59.719Z,15.20
2017-11-29T17:47:00.959Z,17.30
2017-11-29T17:47:59.763Z,16.50
2017-11-29T17:48:59.561Z,16.50
2017-11-29T17:49:59.433Z,18.60
2017-11-29T17:50:59.349Z,17.40
2017-11-29T17:51:59.239Z,18.00
2017-11-29T17:52:59.039Z,18.70
2017-11-29T17:53:59.008Z,18.10
2017-11-29T17:54:59.008Z,20.90
2017-11-29T17:55:59.005Z,23.00
2017-11-29T17:56:58.959Z,24.00
2017-11-29T17:57:59.041Z,25.60
2017-11-29T17:58:58.917Z,25.30
2017-11-29T17:59:58.917Z,26.80
2017-11-29T18:00:58.894Z,25.40
2017-11-29T18:01:58.872Z,26.00
2017-11-29T18:02:58.852Z,24.70
2017-11-29T18:03:58.854Z,25.60
2017-11-29T18:04:58.809Z,22.70
2017-11-29T18:05:58.785Z,23.70
2017-11-29T18:06:58.773Z,20.90
2017-11-29T18:07:58.748Z,22.60
2017-11-29T18:08:58.813Z,22.30
2017-11-29T18:09:58.725Z,20.70
2017-11-29T18:10:58.694Z,22.70
2017-11-29T18:11:58.683Z,21.90
2017-11-29T18:12:58.678Z,23.70
2017-11-29T18:13:58.661Z,22.30
2017-11-29T18:14:58.648Z,21.20
2017-11-29T18:15:58.610Z,20.90
2017-11-29T18:16:58.579Z,18.90
2017-11-29T18:17:58.573Z,16.80
2017-11-29T18:18:58.557Z,15.00
2017-11-29T18:19:58.582Z,16.00
2017-11-29T18:20:58.517Z,18.30
2017-11-29T18:21:58.483Z,16.90
2017-11-29T18:22:58.489Z,16.20
2017-11-29T18:23:58.467Z,16.80
2017-11-29T18:24:58.442Z,15.40
2017-11-29T18:25:58.431Z,13.70
2017-11-29T18:26:58.419Z,15.20
2017-11-29T18:27:58.384Z,15.60
2017-11-29T18:28:58.371Z,14.00
2017-11-29T18:29:58.365Z,13.80
2017-11-29T18:30:58.345Z,13.70
2017-11-29T18:31:58.324Z,13.20
2017-11-29T18:32:58.297Z,13.30
2017-11-29T18:33:58.302Z,12.80
2017-11-29T18:34:58.256Z,12.10
2017-11-29T18:35:58.230Z,13.00
2017-11-29T18:36:58.218Z,12.80
2017-11-29T18:37:58.199Z,12.90
2017-11-29T18:38:58.188Z,12.70
2017-11-29T18:39:58.162Z,11.80
2017-11-29T18:40:58.128Z,11.80
2017-11-29T18:41:58.206Z,12.40
2017-11-29T18:42:58.145Z,10.80
2017-11-29T18:43:58.085Z,10.90
2017-11-29T18:44:58.046Z,11.00
2017-11-29T18:45:58.046Z,10.30
2017-11-29T18:46:58.031Z,10.90
2017-11-29T18:47:58.009Z,11.40
2017-11-29T18:48:57.992Z,10.50
2017-11-29T18:49:57.957Z,10.60
2017-11-29T18:50:57.963Z,10.20
2017-11-29T18:51:57.940Z,9.30
2017-11-29T18:52:57.921Z,8.40
2017-11-29T18:53:57.924Z,10.70
2017-11-29T18:54:57.890Z,9.00
2017-11-29T18:55:57.864Z,10.40
2017-11-29T18:56:57.831Z,9.90
2017-11-29T18:57:57.833Z,10.10
2017-11-29T18:58:57.801Z,8.80
2017-11-29T18:59:57.773Z,9.40
2017-11-29T19:00:57.763Z,8.00
2017-11-29T19:01:57.746Z,8.40
2017-11-29T19:02:57.723Z,9.10
2017-11-29T19:03:57.712Z,8.90
2017-11-29T19:04:58.422Z,8.20
2017-11-29T19:05:57.680Z,7.00
2017-11-29T19:06:57.660Z,6.50
2017-11-29T19:07:57.637Z,6.50
2017-11-29T19:08:57.610Z,6.30
2017-11-29T19:09:57.606Z,5.60
2017-11-29T19:10:57.574Z,6.30
2017-11-29T19:11:58.427Z,6.20
2017-11-29T19:12:57.538Z,6.20
2017-11-29T19:13:57.519Z,5.90
2017-11-29T19:14:57.578Z,5.90
2017-11-29T19:15:57.507Z,5.70
2017-11-29T19:16:57.469Z,5.30
2017-11-29T19:17:57.439Z,5.00
2017-11-29T19:18:57.435Z,5.20
2017-11-29T19:19:57.401Z,5.90
2017-11-29T19:20:57.401Z,5.90
2017-11-29T19:21:57.364Z,5.00
2017-11-29T19:22:57.339Z,5.00
2017-11-29T19:23:57.332Z,4.60
2017-11-29T19:24:57.320Z,3.80
2017-11-29T19:25:57.307Z,4.50
2017-11-29T19:26:57.294Z,4.30
2017-11-29T19:27:57.311Z,4.10
2017-11-29T19:28:57.238Z,4.70
2017-11-29T19:29:57.210Z,4.00
2017-11-29T19:30:57.186Z,3.80
2017-11-29T19:31:57.183Z,4.20
2017-11-29T19:32:57.183Z,4.20
2017-11-29T19:33:57.141Z,3.50
2017-11-29T19:34:57.123Z,4.00
2017-11-29T19:35:57.101Z,3.40
2017-11-29T19:36:57.085Z,3.60
2017-11-29T19:37:57.072Z,4.40
2017-11-29T19:38:57.089Z,3.60
2017-11-29T19:39:57.045Z,4.30
2017-11-29T19:40:57.013Z,3.90
2017-11-29T19:41:57.003Z,4.40
2017-11-29T19:42:56.977Z,3.50
2017-11-29T19:43:56.977Z,3.70
2017-11-29T19:44:56.954Z,4.90
2017-11-29T19:45:56.940Z,3.60
2017-11-29T19:46:56.916Z,3.80
2017-11-29T19:47:56.926Z,3.60
2017-11-29T19:48:56.943Z,4.10
2017-11-29T19:49:56.950Z,4.00
2017-11-29T19:50:56.827Z,3.30
2017-11-29T19:51:56.809Z,3.50
2017-11-29T19:52:56.793Z,3.10
2017-11-29T19:53:56.784Z,3.30
2017-11-29T19:54:56.762Z,3.20
